Time;durP1;ratioP1;P1;durP2;ratioP2;P2;SDS_P1;SDS_P2;PMS_P1;PMS_P2;Temp;Humidity;BMP_temperature;BMP_pressure;BME280_temperature;BME280_humidity;BME280_pressure;Samples;Min_cycle;Max_cycle;Signal;HPM_P1;HPM_P2
2021/01/14 00:00:33;;;;;;;17.10;2.37;;;;;;;;;;5072103;28;20059;-58
2021/01/14 00:02:58;;;;;;;12.48;2.45;;;;;;;;;;5071683;28;20052;-57
2021/01/14 00:05:24;;;;;;;10.17;2.90;;;;;;;;;;5072018;28;20036;-58
2021/01/14 00:07:50;;;;;;;11.63;2.23;;;;;;;;;;5071633;28;20033;-57
2021/01/14 00:10:16;;;;;;;35.15;3.08;;;;;;;;;;5072375;28;20029;-57
2021/01/14 00:12:42;;;;;;;18.88;2.22;;;;;;;;;;5072455;28;20047;-57
2021/01/14 00:15:08;;;;;;;13.10;3.20;;;;;;;;;;5071465;28;20032;-58
2021/01/14 00:17:33;;;;;;;13.00;2.55;;;;;;;;;;5071894;28;20543;-57
2021/01/14 00:19:59;;;;;;;11.17;1.77;;;;;;;;;;5071388;28;20139;-58
2021/01/14 00:22:24;;;;;;;14.17;2.30;;;;;;;;;;5072195;28;20116;-58
2021/01/14 00:24:49;;;;;;;14.63;2.70;;;;;;;;;;5071531;28;20369;-57
2021/01/14 00:27:15;;;;;;;20.13;2.97;;;;;;;;;;5072352;28;20025;-58
2021/01/14 00:29:40;;;;;;;12.20;2.27;;;;;;;;;;5072089;28;20039;-58
2021/01/14 00:32:06;;;;;;;12.33;2.30;;;;;;;;;;5072667;28;20025;-59
2021/01/14 00:34:31;;;;;;;11.00;2.43;;;;;;;;;;5072424;28;20033;-58
2021/01/14 00:39:55;;;;;;;16.98;3.38;;;;;;;;;;5047891;28;20293;-58
2021/01/14 00:42:20;;;;;;;14.05;3.10;;;;;;;;;;5071727;28;20055;-58
2021/01/14 00:44:46;;;;;;;13.20;2.73;;;;;;;;;;5071937;28;20460;-58
2021/01/14 00:47:11;;;;;;;14.38;2.38;;;;;;;;;;5070043;28;20024;-58
2021/01/14 00:49:37;;;;;;;17.90;2.53;;;;;;;;;;5081594;28;20035;-57
2021/01/14 00:52:02;;;;;;;17.40;2.90;;;;;;;;;;5086381;28;20032;-58
2021/01/14 00:54:28;;;;;;;21.55;2.50;;;;;;;;;;5071932;28;20032;-59
2021/01/14 00:56:53;;;;;;;18.43;3.53;;;;;;;;;;5071298;28;20048;-58
2021/01/14 00:59:18;;;;;;;11.97;2.27;;;;;;;;;;5071797;28;20206;-58
2021/01/14 01:01:44;;;;;;;16.67;2.63;;;;;;;;;;5071587;28;20122;-58
2021/01/14 01:04:10;;;;;;;17.40;2.30;;;;;;;;;;5070944;28;20029;-59
2021/01/14 01:06:39;;;;;;;10.20;2.80;;;;;;;;;;5091661;28;20082;-57
2021/01/14 01:09:06;;;;;;;14.77;2.45;;;;;;;;;;5091178;28;20028;-56
2021/01/14 01:11:31;;;;;;;13.68;3.20;;;;;;;;;;5092806;28;20035;-58
2021/01/14 01:13:57;;;;;;;23.57;4.63;;;;;;;;;;5095038;28;20447;-56
2021/01/14 01:16:22;;;;;;;9.90;2.43;;;;;;;;;;5093983;28;20032;-57
2021/01/14 01:18:47;;;;;;;17.57;3.90;;;;;;;;;;5095449;28;20455;-59
2021/01/14 01:21:13;;;;;;;18.50;3.23;;;;;;;;;;5094685;28;20524;-58
2021/01/14 01:23:39;;;;;;;21.80;4.25;;;;;;;;;;5094983;28;20340;-58
2021/01/14 01:26:04;;;;;;;13.00;3.17;;;;;;;;;;5094620;28;20020;-57
2021/01/14 01:28:30;;;;;;;15.50;3.47;;;;;;;;;;5095226;28;20521;-58
2021/01/14 01:30:55;;;;;;;12.07;3.20;;;;;;;;;;5093438;28;20028;-59
2021/01/14 01:33:24;;;;;;;18.67;4.37;;;;;;;;;;5088084;28;20028;-58
2021/01/14 01:35:49;;;;;;;15.15;2.42;;;;;;;;;;5089161;28;20273;-58
2021/01/14 01:38:15;;;;;;;16.37;2.67;;;;;;;;;;5093038;28;20046;-58
2021/01/14 01:40:40;;;;;;;12.73;2.33;;;;;;;;;;5094848;28;20139;-58
2021/01/14 01:43:05;;;;;;;12.40;2.30;;;;;;;;;;5093951;28;20407;-58
2021/01/14 01:45:31;;;;;;;7.33;2.67;;;;;;;;;;5094708;28;20521;-58
2021/01/14 01:47:56;;;;;;;12.67;2.47;;;;;;;;;;5077306;28;20502;-60
2021/01/14 01:50:21;;;;;;;12.70;2.93;;;;;;;;;;5073601;28;20032;-58
2021/01/14 01:52:48;;;;;;;8.97;1.70;;;;;;;;;;5074387;28;20073;-58
2021/01/14 01:55:13;;;;;;;12.15;2.00;;;;;;;;;;5073542;28;20050;-58
2021/01/14 01:57:39;;;;;;;9.90;1.93;;;;;;;;;;5074538;28;20025;-58
2021/01/14 02:00:05;;;;;;;12.10;1.90;;;;;;;;;;5081345;28;20032;-58
2021/01/14 02:02:31;;;;;;;7.65;2.65;;;;;;;;;;5092932;28;20435;-62
2021/01/14 02:04:57;;;;;;;7.23;1.93;;;;;;;;;;5094407;28;20031;-58
2021/01/14 02:07:29;;;;;;;10.30;1.67;;;;;;;;;;5092552;28;20066;-58
2021/01/14 02:09:55;;;;;;;10.38;1.30;;;;;;;;;;5094029;28;20028;-59
2021/01/14 02:12:23;;;;;;;10.05;1.60;;;;;;;;;;5092598;28;20047;-59
2021/01/14 02:14:52;;;;;;;11.45;1.80;;;;;;;;;;5094182;28;20361;-57
2021/01/14 02:17:18;;;;;;;6.65;1.80;;;;;;;;;;5093674;28;20035;-58
2021/01/14 02:19:47;;;;;;;11.53;2.20;;;;;;;;;;5094168;28;20032;-57
2021/01/14 02:22:20;;;;;;;11.80;1.60;;;;;;;;;;5072834;28;20108;-58
2021/01/14 02:24:50;;;;;;;7.05;1.40;;;;;;;;;;5081614;28;20021;-57
2021/01/14 02:27:16;;;;;;;21.48;2.65;;;;;;;;;;5082214;28;20028;-58
2021/01/14 02:29:42;;;;;;;6.85;1.42;;;;;;;;;;5092256;28;20020;-57
2021/01/14 02:32:17;;;;;;;13.40;1.60;;;;;;;;;;5092967;28;20464;-57
2021/01/14 02:34:43;;;;;;;8.13;1.48;;;;;;;;;;5093903;28;20032;-56
2021/01/14 02:37:09;;;;;;;15.60;2.72;;;;;;;;;;5092014;28;20064;-58
2021/01/14 02:39:37;;;;;;;11.33;1.77;;;;;;;;;;5093622;28;20064;-58
2021/01/14 02:42:03;;;;;;;8.35;1.50;;;;;;;;;;5093106;28;20057;-58
2021/01/14 02:44:28;;;;;;;11.23;1.73;;;;;;;;;;5093746;28;20123;-58
2021/01/14 02:46:55;;;;;;;14.53;2.17;;;;;;;;;;5093691;28;20413;-60
2021/01/14 02:49:20;;;;;;;;;;;;;;;;;;5093353;28;20035;-58
2021/01/14 02:51:50;;;;;;;10.70;2.50;;;;;;;;;;5093451;28;19908;-58
2021/01/14 02:54:17;;;;;;;13.98;1.60;;;;;;;;;;5092442;28;20502;-58
2021/01/14 02:56:44;;;;;;;8.80;2.30;;;;;;;;;;5093243;28;20066;-57
2021/01/14 02:59:10;;;;;;;11.45;2.17;;;;;;;;;;5091480;28;20036;-57
2021/01/14 03:01:35;;;;;;;14.43;2.10;;;;;;;;;;5091843;28;20048;-57
2021/01/14 03:04:01;;;;;;;9.00;2.33;;;;;;;;;;5093012;28;20058;-58
2021/01/14 03:06:27;;;;;;;10.77;2.20;;;;;;;;;;5092685;28;20253;-55
2021/01/14 03:08:52;;;;;;;7.93;1.80;;;;;;;;;;5093181;28;20106;-58
2021/01/14 03:11:24;;;;;;;6.37;1.20;;;;;;;;;;5091257;28;20348;-58
2021/01/14 03:13:49;;;;;;;15.65;2.63;;;;;;;;;;5093304;28;20063;-58
2021/01/14 03:16:15;;;;;;;11.97;1.83;;;;;;;;;;5091348;28;20525;-56
2021/01/14 03:18:40;;;;;;;13.50;2.10;;;;;;;;;;5093107;28;20463;-58
2021/01/14 03:21:05;;;;;;;9.17;1.90;;;;;;;;;;5092263;28;20040;-57
2021/01/14 03:23:31;;;;;;;8.83;1.27;;;;;;;;;;5093124;28;20036;-58
2021/01/14 03:25:56;;;;;;;6.93;1.23;;;;;;;;;;5092725;28;20459;-57
2021/01/14 03:28:21;;;;;;;11.00;1.77;;;;;;;;;;5092389;28;20087;-58
2021/01/14 03:30:47;;;;;;;12.00;1.80;;;;;;;;;;5091498;28;20032;-57
2021/01/14 03:33:12;;;;;;;10.40;2.03;;;;;;;;;;5073932;28;20039;-58
2021/01/14 03:35:38;;;;;;;10.97;1.27;;;;;;;;;;5092806;28;20032;-57
2021/01/14 03:38:03;;;;;;;6.73;1.30;;;;;;;;;;5092855;28;20028;-57
2021/01/14 03:40:28;;;;;;;13.17;1.53;;;;;;;;;;5092099;28;20440;-57
2021/01/14 03:42:55;;;;;;;10.73;1.50;;;;;;;;;;5092491;28;20060;-57
2021/01/14 03:45:20;;;;;;;7.65;1.38;;;;;;;;;;5091755;28;20032;-58
2021/01/14 03:47:45;;;;;;;5.93;1.50;;;;;;;;;;5092390;28;20036;-56
2021/01/14 03:50:11;;;;;;;9.03;2.17;;;;;;;;;;5092033;28;20463;-57
2021/01/14 03:52:36;;;;;;;16.00;1.60;;;;;;;;;;5092783;28;20482;-55
2021/01/14 03:55:01;;;;;;;10.30;1.50;;;;;;;;;;5092418;28;20028;-57
2021/01/14 03:57:27;;;;;;;6.77;1.77;;;;;;;;;;5090746;28;20028;-55
2021/01/14 03:59:52;;;;;;;7.93;1.70;;;;;;;;;;5092729;28;20025;-58
2021/01/14 04:02:17;;;;;;;5.83;1.17;;;;;;;;;;5091891;28;20044;-57
2021/01/14 04:04:43;;;;;;;5.50;1.60;;;;;;;;;;5091247;28;20043;-60
2021/01/14 04:07:12;;;;;;;9.27;2.80;;;;;;;;;;5092477;28;20028;-59
2021/01/14 04:09:38;;;;;;;7.22;1.17;;;;;;;;;;5091127;28;20264;-59
2021/01/14 04:12:03;;;;;;;13.73;3.05;;;;;;;;;;5092406;28;20137;-58
2021/01/14 04:14:29;;;;;;;9.93;1.63;;;;;;;;;;5091886;28;20408;-56
2021/01/14 04:16:55;;;;;;;7.28;2.47;;;;;;;;;;5092491;28;20589;-57
2021/01/14 04:19:23;;;;;;;6.00;1.93;;;;;;;;;;5091588;28;20056;-57
2021/01/14 04:21:48;;;;;;;4.57;1.23;;;;;;;;;;5092301;28;20047;-58
2021/01/14 04:24:15;;;;;;;9.68;2.15;;;;;;;;;;5090438;28;20064;-57
2021/01/14 04:26:40;;;;;;;8.90;1.77;;;;;;;;;;5092257;28;20064;-58
2021/01/14 04:29:06;;;;;;;11.60;2.47;;;;;;;;;;5092640;28;20028;-58
2021/01/14 04:31:31;;;;;;;11.30;1.67;;;;;;;;;;5091726;28;20190;-58
2021/01/14 04:33:57;;;;;;;6.88;2.75;;;;;;;;;;5092258;28;20287;-57
2021/01/14 04:36:22;;;;;;;14.13;3.33;;;;;;;;;;5091896;28;20460;-58
2021/01/14 04:38:48;;;;;;;10.93;2.72;;;;;;;;;;5079299;28;20029;-57
2021/01/14 04:41:16;;;;;;;12.33;1.70;;;;;;;;;;5070557;28;20491;-58
2021/01/14 04:43:41;;;;;;;7.03;1.50;;;;;;;;;;5071872;28;20123;-58
2021/01/14 04:46:08;;;;;;;8.70;1.38;;;;;;;;;;5073726;28;20479;-57
2021/01/14 04:48:38;;;;;;;4.93;1.58;;;;;;;;;;5074800;28;20052;-58
2021/01/14 04:51:07;;;;;;;7.63;1.83;;;;;;;;;;5075759;28;20079;-58
2021/01/14 04:53:34;;;;;;;6.18;1.95;;;;;;;;;;5074979;28;20683;-58
2021/01/14 04:55:59;;;;;;;5.45;1.60;;;;;;;;;;5075199;28;20029;-57
2021/01/14 04:58:27;;;;;;;6.07;1.80;;;;;;;;;;5074970;28;20499;-58
2021/01/14 05:00:52;;;;;;;6.45;1.50;;;;;;;;;;5073928;28;20033;-57
2021/01/14 05:03:22;;;;;;;14.13;3.10;;;;;;;;;;5074915;28;20055;-56
2021/01/14 05:05:47;;;;;;;7.18;2.03;;;;;;;;;;5075623;28;20040;-58
2021/01/14 05:08:14;;;;;;;13.93;1.80;;;;;;;;;;5075881;28;20456;-58
2021/01/14 05:10:39;;;;;;;;;;;;;;;;;;5075493;28;20119;-57
2021/01/14 05:13:05;;;;;;;9.07;1.30;;;;;;;;;;5075071;28;20348;-59
2021/01/14 05:15:30;;;;;;;12.53;2.53;;;;;;;;;;5074659;28;20082;-57
2021/01/14 05:17:56;;;;;;;15.87;2.67;;;;;;;;;;5073977;28;20116;-56
2021/01/14 05:20:21;;;;;;;9.68;1.90;;;;;;;;;;5073321;28;20128;-57
2021/01/14 05:22:47;;;;;;;9.00;2.47;;;;;;;;;;5075158;28;20111;-57
2021/01/14 05:25:12;;;;;;;8.37;2.50;;;;;;;;;;5074999;28;20111;-56
2021/01/14 05:27:38;;;;;;;8.07;2.27;;;;;;;;;;5073046;28;20016;-56
2021/01/14 05:30:03;;;;;;;7.80;2.40;;;;;;;;;;5073701;28;20116;-57
2021/01/14 05:32:33;;;;;;;12.03;2.10;;;;;;;;;;5055967;28;20032;-57
2021/01/14 05:34:58;;;;;;;12.07;2.17;;;;;;;;;;5074743;28;20028;-56
2021/01/14 05:37:23;;;;;;;6.20;1.83;;;;;;;;;;5073858;28;20380;-56
2021/01/14 05:39:49;;;;;;;3.33;1.40;;;;;;;;;;5074705;28;20449;-57
2021/01/14 05:42:16;;;;;;;6.03;1.33;;;;;;;;;;5074799;28;20039;-58
2021/01/14 05:44:42;;;;;;;10.02;1.45;;;;;;;;;;5074030;28;20162;-58
2021/01/14 05:47:21;;;;;;;15.00;1.83;;;;;;;;;;5074403;28;20116;-58
2021/01/14 05:49:58;;;;;;;7.35;1.75;;;;;;;;;;5074763;28;20059;-58
2021/01/14 05:52:24;;;;;;;6.78;2.78;;;;;;;;;;5073952;28;20448;-55
2021/01/14 05:55:13;;;;;;;12.02;1.50;;;;;;;;;;5074388;28;20032;-60
2021/01/14 05:57:39;;;;;;;4.18;1.52;;;;;;;;;;5068267;28;20593;-57
2021/01/14 06:00:12;;;;;;;5.60;2.00;;;;;;;;;;5074029;28;20044;-57
2021/01/14 06:02:38;;;;;;;8.43;2.30;;;;;;;;;;5073762;28;20049;-58
2021/01/14 06:05:24;;;;;;;9.23;2.20;;;;;;;;;;5074154;28;20032;-58
2021/01/14 06:07:49;;;;;;;9.57;2.63;;;;;;;;;;5074409;28;20383;-57
2021/01/14 06:10:28;;;;;;;10.10;1.60;;;;;;;;;;5074184;28;20033;-57
2021/01/14 06:12:54;;;;;;;8.18;2.40;;;;;;;;;;5074253;28;20031;-57
2021/01/14 06:15:19;;;;;;;13.83;1.90;;;;;;;;;;5074267;28;20032;-57
2021/01/14 06:17:45;;;;;;;10.10;1.67;;;;;;;;;;5073264;28;20048;-58
2021/01/14 06:20:10;;;;;;;10.13;1.80;;;;;;;;;;5073677;28;20036;-57
2021/01/14 06:22:36;;;;;;;11.83;1.70;;;;;;;;;;5072047;28;20283;-58
2021/01/14 06:25:04;;;;;;;8.50;2.03;;;;;;;;;;5073864;28;20487;-58
2021/01/14 06:27:29;;;;;;;9.07;2.22;;;;;;;;;;5072869;28;20040;-58
2021/01/14 06:30:03;;;;;;;6.93;1.50;;;;;;;;;;5073661;28;20024;-56
2021/01/14 06:32:28;;;;;;;12.45;2.03;;;;;;;;;;5075604;28;20578;-57
2021/01/14 06:34:54;;;;;;;14.97;2.70;;;;;;;;;;5073604;28;20041;-58
2021/01/14 06:37:21;;;;;;;8.63;2.00;;;;;;;;;;5078714;28;20132;-58
2021/01/14 06:39:46;;;;;;;6.03;2.25;;;;;;;;;;5072777;28;20032;-58
2021/01/14 06:42:16;;;;;;;7.97;2.57;;;;;;;;;;5088442;28;20115;-57
2021/01/14 06:44:49;;;;;;;9.63;2.13;;;;;;;;;;5092789;28;20051;-58
2021/01/14 06:47:30;;;;;;;7.30;2.83;;;;;;;;;;5083501;28;20078;-58
2021/01/14 06:50:14;;;;;;;7.75;2.42;;;;;;;;;;5073263;28;20064;-57
2021/01/14 06:52:46;;;;;;;11.52;1.90;;;;;;;;;;5088879;28;20047;-58
2021/01/14 06:55:15;;;;;;;10.65;2.78;;;;;;;;;;5092527;28;20024;-57
2021/01/14 06:57:41;;;;;;;8.10;2.20;;;;;;;;;;5091816;28;20483;-57
2021/01/14 07:00:07;;;;;;;16.50;2.07;;;;;;;;;;5092735;28;20040;-58
2021/01/14 07:02:32;;;;;;;7.20;1.70;;;;;;;;;;5081389;28;20364;-58
2021/01/14 07:05:05;;;;;;;13.90;1.70;;;;;;;;;;5081341;28;20076;-58
2021/01/14 07:07:44;;;;;;;6.90;1.70;;;;;;;;;;5085822;28;20043;-58
2021/01/14 07:10:10;;;;;;;3.45;1.70;;;;;;;;;;5081283;28;20500;-58
2021/01/14 07:12:37;;;;;;;12.45;2.78;;;;;;;;;;5083625;28;20191;-58
2021/01/14 07:15:13;;;;;;;7.85;1.50;;;;;;;;;;5081632;28;20486;-58
2021/01/14 07:17:40;;;;;;;5.00;1.63;;;;;;;;;;5082468;28;20472;-58
2021/01/14 07:20:08;;;;;;;4.78;1.50;;;;;;;;;;5076843;28;20033;-57
2021/01/14 07:22:37;;;;;;;8.13;1.83;;;;;;;;;;5072258;28;20035;-58
2021/01/14 07:25:03;;;;;;;8.88;1.92;;;;;;;;;;5072666;28;20055;-59
2021/01/14 07:27:29;;;;;;;7.72;1.92;;;;;;;;;;5073561;28;20066;-58
2021/01/14 07:29:55;;;;;;;11.23;1.95;;;;;;;;;;5087158;28;20028;-59
2021/01/14 07:32:40;;;;;;;7.97;1.75;;;;;;;;;;5077789;28;20119;-59
2021/01/14 07:35:26;;;;;;;7.68;1.95;;;;;;;;;;5088419;28;20040;-58
2021/01/14 07:37:53;;;;;;;7.47;2.00;;;;;;;;;;5092187;28;20529;-58
2021/01/14 07:40:26;;;;;;;6.93;1.92;;;;;;;;;;5092453;28;20440;-58
2021/01/14 07:42:52;;;;;;;12.70;2.60;;;;;;;;;;5088690;28;20023;-59
2021/01/14 07:45:17;;;;;;;11.43;3.30;;;;;;;;;;5082079;28;20028;-58
2021/01/14 07:47:42;;;;;;;4.50;1.60;;;;;;;;;;5081715;28;20017;-59
2021/01/14 07:50:27;;;;;;;8.87;2.47;;;;;;;;;;5083125;28;20142;-58
2021/01/14 07:52:54;;;;;;;6.38;1.65;;;;;;;;;;5084268;28;20032;-57
2021/01/14 07:55:28;;;;;;;9.60;2.08;;;;;;;;;;5082232;28;20029;-59
2021/01/14 07:58:00;;;;;;;8.95;2.22;;;;;;;;;;5085432;28;20024;-58
2021/01/14 08:00:25;;;;;;;7.30;2.50;;;;;;;;;;5076739;28;20472;-56
2021/01/14 08:03:10;;;;;;;8.30;2.43;;;;;;;;;;5063775;28;20448;-58
2021/01/14 08:05:44;;;;;;;9.85;3.10;;;;;;;;;;5089296;28;20047;-58
2021/01/14 08:08:42;;;;;;;8.07;1.98;;;;;;;;;;5091451;28;20499;-57
2021/01/14 08:11:08;;;;;;;11.98;1.77;;;;;;;;;;5068211;28;20065;-56
2021/01/14 08:13:54;;;;;;;9.10;2.42;;;;;;;;;;5089761;28;20036;-57
2021/01/14 08:16:32;;;;;;;11.50;3.63;;;;;;;;;;5079563;28;20463;-57
2021/01/14 08:19:23;;;;;;;6.82;2.70;;;;;;;;;;5091796;28;20406;-56
2021/01/14 08:21:48;;;;;;;14.65;2.45;;;;;;;;;;5078903;28;20439;-57
2021/01/14 08:24:32;;;;;;;6.13;2.00;;;;;;;;;;5095954;28;20055;-57
2021/01/14 08:27:04;;;;;;;9.88;2.40;;;;;;;;;;5075286;28;20028;-57
2021/01/14 08:29:30;;;;;;;12.00;2.58;;;;;;;;;;5075489;28;20032;-57
2021/01/14 08:31:56;;;;;;;;;;;;;;;;;;5075669;28;20043;-54
2021/01/14 08:34:23;;;;;;;12.23;2.40;;;;;;;;;;5074159;28;19908;-55
2021/01/14 08:36:48;;;;;;;;;;;;;;;;;;5075813;28;20051;-57
2021/01/14 08:39:17;;;;;;;8.47;2.73;;;;;;;;;;5074504;28;20376;-57
2021/01/14 08:41:43;;;;;;;9.07;3.17;;;;;;;;;;5073461;28;20090;-57
2021/01/14 08:44:10;;;;;;;8.57;2.20;;;;;;;;;;5082861;28;20028;-57
2021/01/14 08:46:39;;;;;;;18.90;2.65;;;;;;;;;;5095057;28;20157;-57
2021/01/14 08:49:11;;;;;;;9.93;2.65;;;;;;;;;;5095554;28;20035;-58
2021/01/14 08:51:40;;;;;;;12.15;2.55;;;;;;;;;;5094690;28;20162;-57
2021/01/14 08:54:06;;;;;;;7.40;3.85;;;;;;;;;;5094547;28;20068;-58
2021/01/14 08:56:32;;;;;;;9.98;2.00;;;;;;;;;;5094750;28;20075;-55
2021/01/14 08:59:10;;;;;;;9.57;2.67;;;;;;;;;;5094475;28;20483;-57
2021/01/14 09:01:36;;;;;;;12.90;2.97;;;;;;;;;;5083393;28;20052;-57
2021/01/14 09:04:01;;;;;;;19.60;4.05;;;;;;;;;;5074555;28;20031;-57
2021/01/14 09:06:37;;;;;;;9.63;2.70;;;;;;;;;;5074693;28;20028;-58
2021/01/14 09:09:03;;;;;;;11.68;2.85;;;;;;;;;;5074824;28;20036;-56
2021/01/14 09:11:30;;;;;;;8.80;2.85;;;;;;;;;;5074757;28;20044;-56
2021/01/14 09:14:04;;;;;;;12.50;2.83;;;;;;;;;;5074070;28;20036;-57
2021/01/14 09:16:30;;;;;;;6.18;2.58;;;;;;;;;;5073533;28;20029;-56
2021/01/14 09:18:55;;;;;;;7.83;2.50;;;;;;;;;;5073123;28;20027;-58
2021/01/14 09:21:21;;;;;;;12.67;3.07;;;;;;;;;;5075141;28;20119;-58
2021/01/14 09:23:47;;;;;;;7.80;2.70;;;;;;;;;;5089565;28;20084;-55
2021/01/14 09:26:14;;;;;;;11.30;3.23;;;;;;;;;;5086976;28;20128;-56
2021/01/14 09:28:39;;;;;;;16.67;3.72;;;;;;;;;;5088164;28;20479;-56
2021/01/14 09:31:06;;;;;;;11.05;3.20;;;;;;;;;;5093677;28;20036;-56
2021/01/14 09:33:33;;;;;;;9.87;2.47;;;;;;;;;;5094530;28;20031;-57
2021/01/14 09:36:04;;;;;;;10.30;2.70;;;;;;;;;;5092044;28;20440;-58
2021/01/14 09:38:36;;;;;;;9.73;2.05;;;;;;;;;;5084434;28;20040;-58
2021/01/14 09:41:02;;;;;;;11.25;3.45;;;;;;;;;;5074460;28;20040;-56
2021/01/14 09:43:28;;;;;;;12.88;3.42;;;;;;;;;;5073476;28;20036;-57
2021/01/14 09:45:54;;;;;;;7.55;2.05;;;;;;;;;;5093531;28;20395;-57
2021/01/14 09:48:22;;;;;;;10.67;1.90;;;;;;;;;;5094539;28;20051;-58
2021/01/14 09:50:48;;;;;;;7.55;2.17;;;;;;;;;;5092073;28;20288;-57
2021/01/14 09:53:14;;;;;;;5.57;2.10;;;;;;;;;;5095518;28;20466;-58
2021/01/14 09:55:42;;;;;;;10.57;2.50;;;;;;;;;;5095112;28;20452;-59
2021/01/14 09:58:11;;;;;;;8.90;1.77;;;;;;;;;;5086318;28;20043;-57
2021/01/14 10:00:36;;;;;;;8.32;2.95;;;;;;;;;;5073035;28;20036;-58
2021/01/14 10:03:06;;;;;;;19.25;2.22;;;;;;;;;;5073229;28;20499;-56
2021/01/14 10:05:32;;;;;;;11.27;2.28;;;;;;;;;;5073574;28;20032;-57
2021/01/14 10:08:01;;;;;;;8.68;2.65;;;;;;;;;;5073004;28;20496;-56
2021/01/14 10:10:30;;;;;;;7.97;2.03;;;;;;;;;;5081921;28;20460;-58
2021/01/14 10:12:55;;;;;;;8.73;2.15;;;;;;;;;;5073085;28;20025;-57
2021/01/14 10:15:21;;;;;;;14.02;2.45;;;;;;;;;;5073057;28;20487;-56
2021/01/14 10:17:46;;;;;;;9.05;1.48;;;;;;;;;;5073066;28;20024;-57
2021/01/14 10:20:13;;;;;;;9.20;1.70;;;;;;;;;;5083206;28;20028;-56
2021/01/14 10:22:47;;;;;;;7.28;2.10;;;;;;;;;;5080011;28;20085;-58
2021/01/14 10:25:12;;;;;;;6.43;1.88;;;;;;;;;;5082658;28;20032;-58
2021/01/14 10:27:38;;;;;;;8.27;2.77;;;;;;;;;;5084916;28;20028;-58
2021/01/14 10:30:35;;;;;;;7.67;1.83;;;;;;;;;;5072162;28;20155;-58
2021/01/14 10:33:02;;;;;;;7.05;2.40;;;;;;;;;;5051914;28;20174;-55
2021/01/14 10:35:27;;;;;;;;;;;;;;;;;;5089944;28;20457;-57
2021/01/14 10:38:06;;;;;;;5.63;1.97;;;;;;;;;;5071306;28;19908;-56
2021/01/14 10:40:33;;;;;;;9.20;2.70;;;;;;;;;;5071850;28;20373;-56
2021/01/14 10:43:00;;;;;;;;;;;;;;;;;;5081542;28;20024;-57
2021/01/14 10:45:28;;;;;;;7.53;2.17;;;;;;;;;;5089262;28;20370;-58
2021/01/14 10:48:12;;;;;;;6.88;2.53;;;;;;;;;;5082842;28;20024;-58
2021/01/14 10:50:42;;;;;;;9.77;3.42;;;;;;;;;;5080410;28;20028;-57
2021/01/14 10:53:08;;;;;;;9.38;3.35;;;;;;;;;;5065702;28;20039;-57
2021/01/14 10:55:34;;;;;;;11.20;2.83;;;;;;;;;;5081285;28;20400;-59
2021/01/14 10:58:00;;;;;;;7.75;2.60;;;;;;;;;;5081531;28;20035;-58
2021/01/14 11:00:33;;;;;;;11.40;3.70;;;;;;;;;;5083134;28;20032;-57
2021/01/14 11:02:59;;;;;;;8.13;2.88;;;;;;;;;;5081655;28;20043;-57
2021/01/14 11:05:37;;;;;;;11.83;2.53;;;;;;;;;;5078490;28;20123;-58
2021/01/14 11:08:06;;;;;;;7.53;2.40;;;;;;;;;;5070765;28;20031;-58
2021/01/14 11:10:32;;;;;;;12.15;3.20;;;;;;;;;;5075609;28;20037;-59
2021/01/14 11:13:01;;;;;;;9.97;3.50;;;;;;;;;;5082278;28;20111;-58
2021/01/14 11:15:27;;;;;;;11.57;3.85;;;;;;;;;;5072266;28;20036;-58
2021/01/14 11:17:52;;;;;;;13.17;2.90;;;;;;;;;;5071703;28;20033;-58
2021/01/14 11:20:18;;;;;;;6.73;2.70;;;;;;;;;;5072007;28;20037;-58
2021/01/14 11:22:43;;;;;;;7.07;2.70;;;;;;;;;;5071671;28;20023;-57
2021/01/14 11:25:08;;;;;;;7.30;2.87;;;;;;;;;;5077585;28;20103;-58
2021/01/14 11:27:34;;;;;;;6.77;2.50;;;;;;;;;;5085207;28;20077;-60
2021/01/14 11:29:59;;;;;;;6.53;2.50;;;;;;;;;;5085551;28;20460;-59
2021/01/14 11:32:24;;;;;;;9.80;2.47;;;;;;;;;;5094029;28;20076;-59
2021/01/14 11:34:49;;;;;;;5.73;2.93;;;;;;;;;;5083143;28;20039;-59
2021/01/14 11:37:15;;;;;;;10.17;2.90;;;;;;;;;;5081438;28;20110;-58
2021/01/14 11:39:40;;;;;;;5.27;2.80;;;;;;;;;;5085151;28;20066;-59
2021/01/14 11:42:05;;;;;;;6.40;2.70;;;;;;;;;;5077380;28;20041;-59
2021/01/14 11:44:31;;;;;;;8.90;2.97;;;;;;;;;;5083839;28;20115;-58
2021/01/14 11:46:56;;;;;;;11.97;3.23;;;;;;;;;;5083008;28;20383;-59
2021/01/14 11:49:21;;;;;;;7.97;2.60;;;;;;;;;;5077063;28;20427;-58
2021/01/14 11:51:50;;;;;;;9.40;3.37;;;;;;;;;;5079435;28;20544;-58
2021/01/14 11:54:15;;;;;;;6.65;3.30;;;;;;;;;;5078018;28;20031;-59
2021/01/14 11:56:41;;;;;;;14.93;5.30;;;;;;;;;;5081624;28;20024;-59
2021/01/14 11:59:06;;;;;;;9.77;3.37;;;;;;;;;;5074113;28;20116;-58
2021/01/14 12:01:32;;;;;;;9.70;3.17;;;;;;;;;;5085524;28;20495;-58
2021/01/14 12:03:57;;;;;;;8.20;2.93;;;;;;;;;;5091702;28;20077;-58
2021/01/14 12:06:22;;;;;;;11.77;3.10;;;;;;;;;;5074325;28;20033;-57
2021/01/14 12:08:48;;;;;;;6.47;2.50;;;;;;;;;;5084519;28;20028;-58
2021/01/14 12:11:17;;;;;;;7.73;2.90;;;;;;;;;;5091758;28;20039;-57
2021/01/14 12:13:42;;;;;;;5.55;2.80;;;;;;;;;;5091880;28;20023;-59
2021/01/14 12:16:07;;;;;;;8.13;3.33;;;;;;;;;;5091745;28;20028;-57
2021/01/14 12:18:33;;;;;;;10.47;3.73;;;;;;;;;;5091917;28;20031;-58
2021/01/14 12:20:58;;;;;;;18.43;3.20;;;;;;;;;;5090968;28;20043;-61
2021/01/14 12:23:23;;;;;;;6.30;2.77;;;;;;;;;;5092102;28;20064;-57
2021/01/14 12:25:49;;;;;;;8.10;3.30;;;;;;;;;;5090954;28;20439;-57
2021/01/14 12:28:14;;;;;;;6.67;2.90;;;;;;;;;;5091585;28;20039;-57
2021/01/14 12:30:39;;;;;;;11.67;3.03;;;;;;;;;;5092170;28;20249;-57
2021/01/14 12:33:05;;;;;;;7.63;3.00;;;;;;;;;;5090323;28;20020;-62
2021/01/14 12:35:30;;;;;;;6.40;3.03;;;;;;;;;;5092126;28;20081;-58
2021/01/14 12:37:56;;;;;;;7.40;3.40;;;;;;;;;;5091616;28;20364;-57
2021/01/14 12:40:21;;;;;;;7.53;3.20;;;;;;;;;;5090218;28;20468;-57
2021/01/14 12:42:46;;;;;;;6.73;3.13;;;;;;;;;;5091897;28;20060;-58
2021/01/14 12:45:12;;;;;;;12.93;3.23;;;;;;;;;;5090997;28;20032;-57
2021/01/14 12:47:41;;;;;;;9.03;3.20;;;;;;;;;;5091739;28;20024;-58
2021/01/14 12:50:06;;;;;;;5.63;2.80;;;;;;;;;;5090626;28;20421;-57
2021/01/14 12:52:33;;;;;;;23.43;4.13;;;;;;;;;;5091477;28;20054;-58
2021/01/14 12:54:58;;;;;;;;;;;;;;;;;;5091713;28;20024;-58
2021/01/14 12:57:23;;;;;;;10.80;3.13;;;;;;;;;;5091712;28;19961;-57
2021/01/14 12:59:49;;;;;;;10.80;3.87;;;;;;;;;;5091341;28;20024;-58
2021/01/14 13:02:14;;;;;;;8.97;3.47;;;;;;;;;;5074648;28;20412;-57
2021/01/14 13:04:39;;;;;;;10.03;2.97;;;;;;;;;;5076328;28;20062;-58
2021/01/14 13:07:05;;;;;;;8.80;2.83;;;;;;;;;;5072544;28;20040;-58
2021/01/14 13:09:30;;;;;;;11.90;3.50;;;;;;;;;;5076449;28;20048;-57
2021/01/14 13:11:56;;;;;;;8.73;3.80;;;;;;;;;;5074310;28;20499;-57
2021/01/14 13:14:22;;;;;;;7.45;2.85;;;;;;;;;;5074380;28;20070;-57
2021/01/14 13:16:47;;;;;;;5.53;3.07;;;;;;;;;;5088783;28;20025;-52
2021/01/14 13:19:12;;;;;;;14.03;4.00;;;;;;;;;;5093723;28;20265;-57
2021/01/14 13:21:42;;;;;;;8.25;3.50;;;;;;;;;;5095007;28;20115;-57
2021/01/14 13:24:08;;;;;;;9.68;3.40;;;;;;;;;;5094658;28;20115;-60
2021/01/14 13:26:34;;;;;;;5.53;2.40;;;;;;;;;;5094495;28;20498;-58
2021/01/14 13:29:00;;;;;;;11.75;3.55;;;;;;;;;;5090841;28;20111;-57
2021/01/14 13:31:26;;;;;;;9.07;3.28;;;;;;;;;;5074464;28;20025;-58
2021/01/14 13:33:52;;;;;;;8.57;3.60;;;;;;;;;;5078398;28;20036;-59
2021/01/14 13:36:17;;;;;;;9.23;3.17;;;;;;;;;;5095199;28;20024;-58
2021/01/14 13:38:43;;;;;;;11.83;3.93;;;;;;;;;;5070287;28;20035;-58
2021/01/14 13:41:09;;;;;;;7.78;3.22;;;;;;;;;;5078950;28;20048;-59
2021/01/14 13:43:34;;;;;;;12.18;3.47;;;;;;;;;;5072642;28;20318;-58
2021/01/14 13:46:00;;;;;;;9.10;4.13;;;;;;;;;;5073643;28;20123;-58
2021/01/14 13:48:25;;;;;;;10.37;4.60;;;;;;;;;;5084146;28;20035;-58
2021/01/14 13:50:51;;;;;;;9.50;3.47;;;;;;;;;;5083458;28;20024;-57
2021/01/14 13:53:16;;;;;;;10.50;4.10;;;;;;;;;;5084183;28;20030;-57
2021/01/14 13:55:41;;;;;;;13.50;3.97;;;;;;;;;;5078626;28;20036;-59
2021/01/14 13:58:11;;;;;;;5.93;3.23;;;;;;;;;;5072952;28;20024;-58
2021/01/14 14:00:36;;;;;;;6.30;3.00;;;;;;;;;;5074064;28;20040;-59
2021/01/14 14:03:02;;;;;;;7.73;3.30;;;;;;;;;;5072843;28;20045;-59
2021/01/14 14:05:27;;;;;;;8.15;2.90;;;;;;;;;;5073723;28;20024;-58
2021/01/14 14:07:53;;;;;;;7.57;2.77;;;;;;;;;;5073883;28;20452;-59
2021/01/14 14:10:18;;;;;;;8.03;2.33;;;;;;;;;;5072769;28;20426;-58
2021/01/14 14:12:43;;;;;;;11.47;3.40;;;;;;;;;;5073433;28;20032;-58
2021/01/14 14:15:09;;;;;;;10.57;3.67;;;;;;;;;;5078336;28;20024;-58
2021/01/14 14:17:34;;;;;;;6.27;3.37;;;;;;;;;;5076149;28;20216;-59
2021/01/14 14:20:00;;;;;;;11.67;4.47;;;;;;;;;;5077982;28;20051;-57
2021/01/14 14:22:25;;;;;;;10.93;4.83;;;;;;;;;;5081275;28;20028;-58
2021/01/14 14:24:50;;;;;;;10.70;3.80;;;;;;;;;;5082992;28;20379;-60
2021/01/14 14:27:16;;;;;;;6.70;3.37;;;;;;;;;;5076124;28;20043;-59
2021/01/14 14:29:41;;;;;;;9.97;3.67;;;;;;;;;;5082099;28;20372;-58
2021/01/14 14:32:07;;;;;;;14.00;4.97;;;;;;;;;;5081094;28;20016;-59
2021/01/14 14:34:32;;;;;;;14.57;4.33;;;;;;;;;;5080455;28;20025;-59
2021/01/14 14:36:57;;;;;;;7.20;3.97;;;;;;;;;;5082374;28;20468;-57
2021/01/14 14:39:22;;;;;;;9.13;4.30;;;;;;;;;;5074753;28;20448;-59
2021/01/14 14:41:51;;;;;;;8.97;4.07;;;;;;;;;;5072252;28;20066;-58